createdAt,value
2023-03-12T00:00:20.860Z,80.28
2023-03-12T00:02:48.259Z,82.00
2023-03-12T00:05:15.428Z,84.07
2023-03-12T00:07:42.862Z,86.03
2023-03-12T00:10:11.168Z,81.43
2023-03-12T00:12:38.498Z,88.88
2023-03-12T00:15:06.706Z,85.72
2023-03-12T00:17:34.277Z,82.28
2023-03-12T00:20:01.404Z,66.78
2023-03-12T00:22:28.801Z,75.93
2023-03-12T00:24:56.777Z,68.82
2023-03-12T00:27:24.501Z,73.05
2023-03-12T00:29:51.737Z,67.00
2023-03-12T00:32:19.630Z,58.80
2023-03-12T00:34:53.997Z,60.22
2023-03-12T00:37:22.465Z,58.88
2023-03-12T00:39:49.611Z,57.88
2023-03-12T00:42:17.417Z,52.80
2023-03-12T00:44:45.035Z,59.58
2023-03-12T00:47:12.481Z,62.47
2023-03-12T00:49:39.868Z,65.40
2023-03-12T00:52:07.292Z,62.30
2023-03-12T00:54:34.726Z,57.88
2023-03-12T00:57:02.143Z,59.95
2023-03-12T00:59:29.598Z,61.53
2023-03-12T01:01:57.220Z,60.10
2023-03-12T01:04:24.444Z,60.40
2023-03-12T01:06:52.136Z,57.78
2023-03-12T01:09:19.691Z,52.25
2023-03-12T01:11:46.785Z,54.60
2023-03-12T01:14:14.232Z,102.93
2023-03-12T01:16:41.282Z,56.85
2023-03-12T01:19:08.815Z,51.53
2023-03-12T01:21:36.235Z,54.55
2023-03-12T01:24:03.979Z,56.53
2023-03-12T01:26:31.422Z,48.90
2023-03-12T01:28:59.228Z,53.03
2023-03-12T01:31:26.946Z,52.42
2023-03-12T01:33:54.746Z,49.97
2023-03-12T01:36:26.568Z,52.42
2023-03-12T01:38:57.077Z,55.20
2023-03-12T01:41:25.506Z,55.92
2023-03-12T01:43:53.505Z,54.05
2023-03-12T01:46:35.992Z,51.63
2023-03-12T01:49:15.735Z,61.17
2023-03-12T01:51:59.774Z,72.15
2023-03-12T01:54:57.947Z,68.05
2023-03-12T01:57:36.741Z,60.90
2023-03-12T02:00:11.360Z,67.13
2023-03-12T02:02:43.159Z,68.35
2023-03-12T02:05:16.853Z,62.00
2023-03-12T02:07:44.384Z,59.17
2023-03-12T02:10:11.796Z,63.80
2023-03-12T02:12:39.614Z,45.63
2023-03-12T02:15:07.799Z,47.30
2023-03-12T02:17:36.430Z,49.35
2023-03-12T02:20:13.249Z,51.92
2023-03-12T02:22:41.641Z,44.67
2023-03-12T02:25:31.168Z,60.97
2023-03-12T02:27:59.484Z,60.17
2023-03-12T02:30:27.856Z,56.47
2023-03-12T02:32:55.640Z,57.53
2023-03-12T02:35:23.123Z,60.95
2023-03-12T02:37:51.840Z,67.38
2023-03-12T02:40:40.174Z,59.92
2023-03-12T02:43:07.947Z,73.70
2023-03-12T02:45:36.129Z,79.85
2023-03-12T02:48:04.590Z,84.82
2023-03-12T02:50:31.644Z,84.47
2023-03-12T02:52:58.895Z,83.95
2023-03-12T02:55:26.357Z,92.40
2023-03-12T02:57:54.216Z,91.20
2023-03-12T03:00:21.975Z,89.65
2023-03-12T03:02:52.009Z,91.45
2023-03-12T03:05:20.519Z,97.97
2023-03-12T03:07:47.786Z,91.00
2023-03-12T03:10:17.262Z,98.05
2023-03-12T03:12:44.515Z,85.32
2023-03-12T03:15:12.395Z,88.45
2023-03-12T03:17:40.651Z,88.38
2023-03-12T03:20:11.151Z,73.75
2023-03-12T03:22:39.295Z,77.72
2023-03-12T03:25:07.210Z,66.32
2023-03-12T03:27:34.198Z,66.60
2023-03-12T03:30:02.116Z,75.65
2023-03-12T03:32:32.789Z,77.82
2023-03-12T03:35:00.360Z,76.93
2023-03-12T03:37:28.400Z,71.20
2023-03-12T03:39:55.587Z,72.18
2023-03-12T03:42:23.027Z,58.80
2023-03-12T03:44:50.460Z,52.05
2023-03-12T03:47:17.741Z,53.95
2023-03-12T03:49:44.966Z,51.63
2023-03-12T03:52:12.921Z,51.97
2023-03-12T03:54:40.498Z,47.25
2023-03-12T03:57:08.354Z,47.53
2023-03-12T03:59:35.525Z,54.08
2023-03-12T04:02:03.965Z,41.95
2023-03-12T04:04:34.943Z,46.90
2023-03-12T04:07:02.373Z,48.22
2023-03-12T04:09:31.090Z,58.17
2023-03-12T04:11:58.475Z,42.72
2023-03-12T04:14:26.115Z,47.63
2023-03-12T04:16:53.482Z,54.72
2023-03-12T04:19:21.082Z,39.53
2023-03-12T04:21:48.894Z,38.75
2023-03-12T04:24:17.117Z,41.72
2023-03-12T04:26:44.921Z,45.38
2023-03-12T04:29:14.160Z,36.95
2023-03-12T04:31:42.048Z,41.33
2023-03-12T04:34:10.781Z,41.90
2023-03-12T04:36:39.229Z,42.72
2023-03-12T04:39:07.316Z,43.85
2023-03-12T04:41:35.613Z,45.25
2023-03-12T04:44:13.671Z,51.53
2023-03-12T04:46:42.916Z,35.63
2023-03-12T04:49:13.216Z,35.28
2023-03-12T04:51:42.609Z,36.47
2023-03-12T04:54:10.265Z,34.78
2023-03-12T04:56:39.472Z,29.25
2023-03-12T04:59:06.752Z,34.40
2023-03-12T05:01:35.405Z,35.25
2023-03-12T05:04:07.654Z,30.90
2023-03-12T05:06:35.005Z,35.13
2023-03-12T05:09:02.863Z,43.08
2023-03-12T05:11:30.320Z,42.60
2023-03-12T05:13:57.978Z,46.28
2023-03-12T05:16:25.422Z,42.50
2023-03-12T05:18:53.127Z,47.28
2023-03-12T05:21:22.243Z,35.17
2023-03-12T05:23:52.778Z,28.17
2023-03-12T05:26:31.725Z,30.45
2023-03-12T05:29:11.287Z,35.97
2023-03-12T05:31:39.314Z,26.85
2023-03-12T05:34:07.610Z,25.30
2023-03-12T05:36:38.995Z,27.92
2023-03-12T05:39:06.773Z,18.17
2023-03-12T05:41:34.941Z,23.20
2023-03-12T05:44:13.410Z,23.45
2023-03-12T05:46:42.421Z,21.77
2023-03-12T05:49:10.469Z,22.33
2023-03-12T05:51:37.863Z,12.48
2023-03-12T05:54:05.756Z,17.15
2023-03-12T05:56:33.327Z,10.35
2023-03-12T05:59:00.426Z,12.40
2023-03-12T06:01:29.210Z,12.27
2023-03-12T06:03:58.997Z,11.30
2023-03-12T06:06:26.962Z,11.40
2023-03-12T06:08:54.841Z,15.80
2023-03-12T06:11:22.015Z,10.80
2023-03-12T06:13:49.651Z,11.55
2023-03-12T06:16:21.670Z,16.40
2023-03-12T06:18:52.456Z,7.90
2023-03-12T06:21:22.864Z,10.50
2023-03-12T06:23:52.195Z,8.90
2023-03-12T06:26:33.945Z,10.05
2023-03-12T06:29:01.170Z,22.73
2023-03-12T06:31:28.960Z,11.60
2023-03-12T06:33:56.413Z,11.80
2023-03-12T06:36:24.267Z,16.92
2023-03-12T06:38:51.762Z,13.93
2023-03-12T06:41:19.353Z,10.07
2023-03-12T06:43:46.563Z,11.80
2023-03-12T06:46:16.330Z,14.40
2023-03-12T06:48:46.126Z,7.43
2023-03-12T06:51:14.211Z,10.35
2023-03-12T06:53:42.634Z,13.55
2023-03-12T06:56:10.409Z,16.23
2023-03-12T06:58:38.030Z,13.98
2023-03-12T07:01:05.377Z,6.72
2023-03-12T07:03:33.091Z,8.35
2023-03-12T07:06:00.397Z,11.90
2023-03-12T07:08:31.065Z,9.23
2023-03-12T07:11:01.485Z,13.27
2023-03-12T07:13:30.260Z,9.57
2023-03-12T07:15:57.341Z,15.30
2023-03-12T07:18:24.761Z,7.15
2023-03-12T07:20:52.101Z,8.40
2023-03-12T07:23:19.153Z,18.20
2023-03-12T07:25:48.102Z,7.35
2023-03-12T07:28:16.107Z,9.00
2023-03-12T07:30:43.734Z,6.68
2023-03-12T07:33:12.213Z,11.88
2023-03-12T07:35:39.839Z,10.82
2023-03-12T07:38:08.182Z,9.07
2023-03-12T07:40:36.063Z,5.28
2023-03-12T07:43:04.194Z,16.55
2023-03-12T07:45:32.705Z,6.95
2023-03-12T07:48:00.194Z,10.18
2023-03-12T07:50:27.754Z,5.15
2023-03-12T07:52:55.097Z,8.52
2023-03-12T07:55:22.686Z,7.57
2023-03-12T07:57:49.854Z,10.75
2023-03-12T08:00:17.753Z,7.03
2023-03-12T08:02:45.690Z,4.32
2023-03-12T08:05:13.723Z,7.35
2023-03-12T08:07:40.961Z,6.88
2023-03-12T08:10:08.777Z,12.23
2023-03-12T08:12:37.336Z,11.07
2023-03-12T08:15:06.084Z,6.38
2023-03-12T08:17:33.391Z,6.85
2023-03-12T08:20:00.443Z,6.82
2023-03-12T08:22:27.967Z,4.72
2023-03-12T08:24:55.420Z,7.53
2023-03-12T08:27:22.598Z,6.22
2023-03-12T08:29:49.602Z,10.60
2023-03-12T08:32:17.104Z,2.83
2023-03-12T08:34:44.801Z,6.85
2023-03-12T08:37:11.896Z,6.43
2023-03-12T08:39:39.182Z,3.92
2023-03-12T08:42:07.519Z,4.63
2023-03-12T08:44:34.848Z,3.88
2023-03-12T08:47:02.537Z,2.70
2023-03-12T08:49:29.694Z,9.23
2023-03-12T08:51:56.932Z,9.27
2023-03-12T08:54:24.073Z,6.78
2023-03-12T08:56:51.903Z,5.05
2023-03-12T08:59:20.374Z,7.60
2023-03-12T09:01:47.654Z,6.55
2023-03-12T09:04:15.187Z,7.18
2023-03-12T09:06:42.619Z,7.35
2023-03-12T09:09:10.365Z,7.95
2023-03-12T09:11:39.529Z,6.82
2023-03-12T09:15:01.137Z,15.07
2023-03-12T09:16:54.482Z,7.20
2023-03-12T09:19:22.203Z,5.82
2023-03-12T09:21:49.397Z,6.22
2023-03-12T09:24:16.816Z,8.02
2023-03-12T09:26:43.864Z,6.40
2023-03-12T09:29:11.299Z,6.68
2023-03-12T09:31:38.934Z,5.00
2023-03-12T09:34:06.179Z,6.15
2023-03-12T09:36:33.402Z,7.78
2023-03-12T09:39:00.944Z,7.03
2023-03-12T09:41:30.363Z,9.45
2023-03-12T09:44:30.402Z,11.05
2023-03-12T09:47:04.300Z,9.60
2023-03-12T09:49:41.950Z,6.70
2023-03-12T09:52:24.898Z,10.68
2023-03-12T09:54:57.161Z,8.20
2023-03-12T09:57:25.557Z,7.93
2023-03-12T09:59:52.842Z,8.45
2023-03-12T10:02:42.030Z,12.85
2023-03-12T10:05:42.902Z,6.95
2023-03-12T10:08:46.509Z,3.85
2023-03-12T10:13:54.767Z,4.63
2023-03-12T10:16:47.098Z,4.15
2023-03-12T10:19:26.740Z,8.90
2023-03-12T10:22:14.154Z,9.82
2023-03-12T10:25:14.356Z,5.32
2023-03-12T10:27:42.166Z,12.93
2023-03-12T10:30:20.773Z,11.00
2023-03-12T10:32:54.221Z,5.13
2023-03-12T10:35:23.312Z,6.00
2023-03-12T10:37:56.967Z,11.63
2023-03-12T10:40:34.211Z,5.88
2023-03-12T10:43:02.003Z,4.65
2023-03-12T10:45:50.025Z,6.60
2023-03-12T10:48:22.624Z,6.47
2023-03-12T10:51:09.462Z,14.73
2023-03-12T10:53:42.545Z,10.70
2023-03-12T10:58:45.704Z,5.22
2023-03-12T11:01:21.990Z,7.40
2023-03-12T11:03:51.181Z,8.43
2023-03-12T11:06:29.075Z,7.72
2023-03-12T11:09:17.025Z,9.88
2023-03-12T11:11:47.169Z,18.67
2023-03-12T11:14:17.470Z,23.05
2023-03-12T11:16:44.651Z,22.52
2023-03-12T11:19:14.085Z,23.65
2023-03-12T11:21:41.577Z,26.00
2023-03-12T11:24:12.409Z,21.52
2023-03-12T11:26:53.206Z,33.65
2023-03-12T11:29:39.396Z,14.52
2023-03-12T11:32:15.953Z,11.90
2023-03-12T11:34:47.276Z,12.68
2023-03-12T11:37:36.910Z,15.18
2023-03-12T11:40:33.610Z,12.73
2023-03-12T11:43:43.372Z,9.68
2023-03-12T11:46:29.980Z,11.45
2023-03-12T11:49:18.268Z,14.10
2023-03-12T11:52:21.039Z,24.15
2023-03-12T11:54:53.305Z,23.60
2023-03-12T11:57:39.154Z,12.55
2023-03-12T12:00:12.802Z,13.38
2023-03-12T12:06:04.060Z,9.05
2023-03-12T12:08:58.743Z,8.77
2023-03-12T12:11:35.711Z,9.82
2023-03-12T12:14:34.944Z,7.63
2023-03-12T12:17:25.323Z,8.13
2023-03-12T12:20:09.333Z,10.88
2023-03-12T12:22:52.663Z,9.38
2023-03-12T12:28:08.226Z,11.77
2023-03-12T12:30:41.195Z,9.75
2023-03-12T12:33:46.221Z,14.82
2023-03-12T12:36:13.983Z,10.88
2023-03-12T12:38:44.286Z,9.35
2023-03-12T12:41:16.325Z,12.82
2023-03-12T12:43:51.453Z,14.30
2023-03-12T12:46:25.088Z,13.18
2023-03-12T12:48:55.813Z,11.77
2023-03-12T12:51:29.854Z,9.18
2023-03-12T12:54:01.635Z,8.20
2023-03-12T12:56:59.202Z,8.07
2023-03-12T12:59:31.478Z,5.00
2023-03-12T13:01:59.763Z,7.55
2023-03-12T13:04:36.825Z,8.02
2023-03-12T13:07:14.010Z,16.55
2023-03-12T13:09:52.141Z,11.15
2023-03-12T13:12:25.857Z,11.10
2023-03-12T13:14:53.980Z,12.40
2023-03-12T13:17:29.150Z,8.02
2023-03-12T13:20:20.453Z,6.43
2023-03-12T13:23:13.001Z,16.08
2023-03-12T13:26:08.282Z,10.77
2023-03-12T13:28:40.878Z,18.48
2023-03-12T13:31:15.155Z,13.82
2023-03-12T13:33:45.209Z,13.93
2023-03-12T13:36:15.708Z,6.60
2023-03-12T13:39:00.273Z,11.38
2023-03-12T13:41:34.761Z,16.70
2023-03-12T13:44:34.453Z,12.82
2023-03-12T13:47:10.730Z,14.20
2023-03-12T13:50:01.316Z,9.15
2023-03-12T13:52:40.672Z,6.25
2023-03-12T13:55:14.401Z,5.03
2023-03-12T13:57:45.773Z,14.75
2023-03-12T14:00:26.914Z,6.10
2023-03-12T14:03:22.593Z,5.75
2023-03-12T14:06:19.965Z,6.70
2023-03-12T14:09:11.365Z,7.95
2023-03-12T14:12:09.012Z,5.30
2023-03-12T14:14:49.079Z,6.95
2023-03-12T14:17:21.567Z,49.72
2023-03-12T14:19:52.708Z,23.75
2023-03-12T14:22:22.596Z,18.73
2023-03-12T14:25:01.614Z,17.42
2023-03-12T14:27:33.134Z,19.75
2023-03-12T14:30:12.230Z,22.00
2023-03-12T14:32:39.647Z,26.17
2023-03-12T14:35:46.978Z,7.15
2023-03-12T14:38:21.972Z,19.38
2023-03-12T14:41:29.105Z,5.72
2023-03-12T14:44:03.718Z,3.83
2023-03-12T14:46:31.030Z,7.13
2023-03-12T14:48:58.323Z,4.30
2023-03-12T14:51:29.381Z,2.78
2023-03-12T14:53:57.146Z,2.80
2023-03-12T14:56:33.137Z,3.95
2023-03-12T14:59:02.594Z,3.63
2023-03-12T15:01:31.809Z,2.88
2023-03-12T15:04:04.141Z,5.05
2023-03-12T15:06:37.765Z,8.83
2023-03-12T15:09:06.421Z,4.32
2023-03-12T15:11:34.983Z,11.43
2023-03-12T15:14:07.559Z,9.50
2023-03-12T15:16:34.957Z,5.28
2023-03-12T15:19:02.697Z,7.32
2023-03-12T15:21:34.581Z,6.10
2023-03-12T15:24:02.593Z,4.20
2023-03-12T15:26:31.863Z,8.48
2023-03-12T15:29:03.230Z,3.92
2023-03-12T15:31:44.049Z,2.50
2023-03-12T15:34:16.366Z,4.43
2023-03-12T15:36:48.199Z,4.03
2023-03-12T15:39:32.934Z,10.75
2023-03-12T15:42:10.228Z,11.85
2023-03-12T15:44:46.232Z,9.40
2023-03-12T15:47:21.680Z,4.35
2023-03-12T15:49:53.234Z,5.13
2023-03-12T15:52:24.478Z,4.05
2023-03-12T15:55:05.504Z,4.65
2023-03-12T15:57:34.361Z,8.77
2023-03-12T16:00:31.622Z,2.80
2023-03-12T16:03:00.518Z,4.03
2023-03-12T16:05:30.608Z,9.50
2023-03-12T16:07:57.967Z,5.03
2023-03-12T16:10:26.741Z,5.60
2023-03-12T16:13:03.594Z,5.80
2023-03-12T16:15:33.049Z,8.20
2023-03-12T16:18:00.554Z,3.28
2023-03-12T16:20:27.931Z,3.00
2023-03-12T16:22:55.356Z,4.10
2023-03-12T16:25:23.314Z,3.28
2023-03-12T16:27:54.980Z,4.55
2023-03-12T16:30:30.776Z,6.82
2023-03-12T16:32:58.580Z,4.45
2023-03-12T16:35:28.034Z,4.53
2023-03-12T16:37:55.788Z,3.35
2023-03-12T16:40:33.038Z,2.88
2023-03-12T16:43:03.218Z,4.70
2023-03-12T16:45:30.880Z,5.13
2023-03-12T16:48:03.361Z,9.18
2023-03-12T16:50:30.965Z,4.15
2023-03-12T16:52:58.192Z,1.83
2023-03-12T16:55:29.822Z,1.95
2023-03-12T16:58:01.062Z,4.25
2023-03-12T17:00:30.124Z,6.22
2023-03-12T17:02:57.797Z,7.13
2023-03-12T17:05:28.853Z,7.20
2023-03-12T17:07:56.568Z,5.93
2023-03-12T17:10:23.978Z,5.82
2023-03-12T17:12:51.233Z,8.07
2023-03-12T17:15:30.717Z,4.82
2023-03-12T17:18:02.824Z,4.13
2023-03-12T17:20:35.754Z,8.75
2023-03-12T17:23:03.594Z,4.38
2023-03-12T17:25:33.009Z,5.00
2023-03-12T17:28:00.285Z,4.22
2023-03-12T17:30:28.674Z,4.55
2023-03-12T17:33:09.153Z,8.68
2023-03-12T17:35:36.522Z,4.53
2023-03-12T17:38:03.785Z,6.55
2023-03-12T17:40:31.257Z,4.70
2023-03-12T17:42:58.682Z,3.78
2023-03-12T17:45:25.974Z,4.18
2023-03-12T17:47:53.490Z,6.30
2023-03-12T17:50:20.575Z,5.80
2023-03-12T17:52:48.163Z,9.75
2023-03-12T17:55:15.254Z,6.40
2023-03-12T17:57:44.741Z,7.43
2023-03-12T18:00:12.625Z,7.60
2023-03-12T18:02:40.217Z,7.25
2023-03-12T18:05:08.931Z,5.82
2023-03-12T18:07:36.301Z,7.75
2023-03-12T18:10:05.725Z,6.38
2023-03-12T18:12:32.979Z,8.02
2023-03-12T18:15:00.843Z,5.22
2023-03-12T18:17:28.060Z,5.22
2023-03-12T18:19:55.201Z,3.70
2023-03-12T18:22:22.874Z,8.70
2023-03-12T18:24:50.628Z,4.60
2023-03-12T18:27:17.740Z,2.78
2023-03-12T18:29:44.889Z,5.10
2023-03-12T18:32:12.229Z,4.55
2023-03-12T18:34:42.064Z,3.15
2023-03-12T18:37:09.296Z,2.90
2023-03-12T18:39:36.603Z,9.52
2023-03-12T18:42:03.737Z,4.05
2023-03-12T18:44:31.219Z,1.90
2023-03-12T18:46:58.382Z,3.08
2023-03-12T18:49:26.087Z,3.92
2023-03-12T18:51:55.664Z,6.47
2023-03-12T18:54:24.669Z,3.28
2023-03-12T18:56:52.078Z,2.53
2023-03-12T18:59:19.592Z,3.88
2023-03-12T19:01:46.921Z,2.65
2023-03-12T19:04:16.575Z,3.63
2023-03-12T19:06:50.873Z,2.58
2023-03-12T19:09:19.273Z,1.75
2023-03-12T19:11:47.966Z,6.90
2023-03-12T19:14:15.277Z,4.78
2023-03-12T19:16:42.916Z,3.55
2023-03-12T19:19:10.657Z,4.65
2023-03-12T19:21:37.786Z,9.10
2023-03-12T19:24:05.005Z,3.72
2023-03-12T19:26:32.182Z,2.90
2023-03-12T19:28:59.605Z,5.53
2023-03-12T19:31:26.819Z,10.00
2023-03-12T19:33:54.267Z,3.42
2023-03-12T19:36:21.617Z,2.20
2023-03-12T19:38:49.079Z,4.07
2023-03-12T19:41:17.097Z,2.13
2023-03-12T19:43:44.475Z,2.03
2023-03-12T19:46:11.790Z,2.33
2023-03-12T19:48:39.281Z,5.95
2023-03-12T19:51:10.430Z,2.05
2023-03-12T19:53:37.956Z,2.13
2023-03-12T19:56:05.690Z,6.22
2023-03-12T19:58:32.764Z,2.65
2023-03-12T20:01:00.891Z,3.80
2023-03-12T20:03:28.543Z,2.90
2023-03-12T20:05:55.968Z,2.20
2023-03-12T20:08:26.083Z,6.38
2023-03-12T20:10:53.408Z,2.10
2023-03-12T20:13:20.501Z,7.32
2023-03-12T20:15:48.495Z,6.55
2023-03-12T20:18:15.964Z,9.82
2023-03-12T20:20:43.319Z,6.57
2023-03-12T20:23:10.903Z,11.13
2023-03-12T20:25:41.652Z,4.57
2023-03-12T20:28:10.811Z,6.35
2023-03-12T20:30:40.511Z,7.20
2023-03-12T20:33:08.236Z,4.68
2023-03-12T20:35:36.138Z,1.85
2023-03-12T20:38:03.484Z,2.70
2023-03-12T20:40:30.805Z,2.35
2023-03-12T20:42:58.524Z,2.80
2023-03-12T20:45:25.616Z,9.35
2023-03-12T20:47:53.425Z,2.72
2023-03-12T20:50:20.635Z,2.67
2023-03-12T20:52:47.759Z,8.35
2023-03-12T20:55:15.384Z,3.67
2023-03-12T20:57:42.899Z,4.55
2023-03-12T21:00:11.169Z,3.92
2023-03-12T21:02:38.699Z,3.45
2023-03-12T21:05:06.226Z,3.95
2023-03-12T21:07:33.960Z,4.00
2023-03-12T21:10:01.244Z,6.18
2023-03-12T21:12:28.326Z,1.38
2023-03-12T21:14:55.575Z,1.48
2023-03-12T21:17:23.141Z,1.20
2023-03-12T21:19:50.623Z,3.08
2023-03-12T21:22:17.752Z,2.75
2023-03-12T21:24:45.087Z,6.47
2023-03-12T21:27:12.671Z,3.38
2023-03-12T21:29:40.253Z,3.17
2023-03-12T21:32:07.677Z,6.78
2023-03-12T21:34:34.732Z,3.42
2023-03-12T21:37:02.149Z,4.18
2023-03-12T21:39:29.340Z,2.53
2023-03-12T21:41:56.663Z,3.05
2023-03-12T21:44:23.909Z,2.30
2023-03-12T21:46:51.958Z,2.30
2023-03-12T21:49:19.577Z,1.88
2023-03-12T21:51:47.309Z,1.35
2023-03-12T21:54:14.695Z,1.70
2023-03-12T21:56:42.112Z,1.67
2023-03-12T21:59:10.666Z,1.10
2023-03-12T22:01:38.142Z,1.70
2023-03-12T22:04:05.631Z,2.38
2023-03-12T22:06:32.932Z,1.75
2023-03-12T22:09:00.117Z,2.78
2023-03-12T22:11:27.466Z,1.75
2023-03-12T22:13:54.586Z,2.25
2023-03-12T22:16:22.146Z,1.63
2023-03-12T22:18:49.974Z,3.15
2023-03-12T22:21:18.659Z,2.38
2023-03-12T22:23:50.995Z,2.42
2023-03-12T22:26:19.508Z,2.28
2023-03-12T22:28:54.885Z,2.35
2023-03-12T22:31:23.149Z,2.75
2023-03-12T22:33:50.739Z,3.08
2023-03-12T22:36:18.218Z,2.33
2023-03-12T22:38:47.740Z,1.95
2023-03-12T22:41:19.444Z,2.13
2023-03-12T22:43:47.328Z,5.82
2023-03-12T22:46:16.211Z,3.13
2023-03-12T22:48:44.379Z,4.45
2023-03-12T22:51:11.907Z,2.30
2023-03-12T22:53:39.217Z,3.72
2023-03-12T22:56:08.319Z,2.17
2023-03-12T22:58:35.528Z,2.92
2023-03-12T23:01:08.299Z,2.92
2023-03-12T23:03:36.298Z,2.88
2023-03-12T23:06:03.674Z,6.22
2023-03-12T23:08:31.213Z,4.53
2023-03-12T23:11:00.440Z,3.17
2023-03-12T23:13:28.626Z,5.22
2023-03-12T23:16:02.764Z,3.72
2023-03-12T23:18:30.262Z,7.35
2023-03-12T23:20:59.331Z,7.28
2023-03-12T23:23:26.663Z,6.75
2023-03-12T23:25:55.483Z,5.60
2023-03-12T23:28:22.800Z,3.65
2023-03-12T23:31:00.986Z,4.40
2023-03-12T23:33:28.479Z,5.32
2023-03-12T23:36:03.301Z,5.53
2023-03-12T23:38:31.005Z,4.45
2023-03-12T23:41:18.008Z,7.72
2023-03-12T23:43:45.202Z,6.05
2023-03-12T23:46:13.307Z,3.17
2023-03-12T23:48:40.953Z,3.97
2023-03-12T23:51:11.134Z,4.68
2023-03-12T23:53:39.457Z,3.05
2023-03-12T23:56:08.968Z,6.20
2023-03-12T23:58:36.712Z,4.93
